sensor_id;sensor_type;location;lat;lon;timestamp;pressure;altitude;pressure_sealevel;temperature;humidity
33625;BME280;19962;47.820;1.930;2023-09-19T00:01:40;100402.00;;;20.21;90.12
33625;BME280;19962;47.820;1.930;2023-09-19T00:04:08;100407.31;;;20.17;89.97
33625;BME280;19962;47.820;1.930;2023-09-19T00:06:38;100408.75;;;20.15;89.89
33625;BME280;19962;47.820;1.930;2023-09-19T00:09:05;100395.66;;;20.15;89.84
33625;BME280;19962;47.820;1.930;2023-09-19T00:11:36;100408.53;;;20.11;90.30
33625;BME280;19962;47.820;1.930;2023-09-19T00:14:04;100418.47;;;20.17;90.18
33625;BME280;19962;47.820;1.930;2023-09-19T00:16:31;100404.25;;;20.19;90.04
33625;BME280;19962;47.820;1.930;2023-09-19T00:18:58;100407.25;;;20.22;89.73
33625;BME280;19962;47.820;1.930;2023-09-19T00:21:31;100407.03;;;20.19;89.92
33625;BME280;19962;47.820;1.930;2023-09-19T00:23:57;100408.69;;;20.20;89.74
33625;BME280;19962;47.820;1.930;2023-09-19T00:26:23;100421.19;;;20.22;89.62
33625;BME280;19962;47.820;1.930;2023-09-19T00:28:52;100422.31;;;20.21;89.61
33625;BME280;19962;47.820;1.930;2023-09-19T00:31:18;100410.72;;;20.14;89.82
33625;BME280;19962;47.820;1.930;2023-09-19T00:33:44;100419.59;;;20.16;89.74
33625;BME280;19962;47.820;1.930;2023-09-19T00:36:10;100420.44;;;20.17;89.76
33625;BME280;19962;47.820;1.930;2023-09-19T00:38:36;100411.25;;;20.16;89.65
33625;BME280;19962;47.820;1.930;2023-09-19T00:41:03;100427.13;;;20.16;89.59
33625;BME280;19962;47.820;1.930;2023-09-19T00:43:29;100431.88;;;20.15;89.41
33625;BME280;19962;47.820;1.930;2023-09-19T00:45:56;100436.09;;;20.13;89.44
33625;BME280;19962;47.820;1.930;2023-09-19T00:48:23;100439.66;;;20.18;89.39
33625;BME280;19962;47.820;1.930;2023-09-19T00:50:51;100439.09;;;20.16;89.30
33625;BME280;19962;47.820;1.930;2023-09-19T00:53:21;100439.09;;;20.16;89.49
33625;BME280;19962;47.820;1.930;2023-09-19T00:55:49;100446.59;;;20.21;89.03
33625;BME280;19962;47.820;1.930;2023-09-19T00:58:17;100443.00;;;20.15;89.44
33625;BME280;19962;47.820;1.930;2023-09-19T01:00:44;100443.31;;;20.14;89.16
33625;BME280;19962;47.820;1.930;2023-09-19T01:03:11;100444.16;;;20.14;89.29
33625;BME280;19962;47.820;1.930;2023-09-19T01:05:39;100447.22;;;20.13;89.32
33625;BME280;19962;47.820;1.930;2023-09-19T01:08:05;100450.25;;;20.16;89.13
33625;BME280;19962;47.820;1.930;2023-09-19T01:10:33;100446.09;;;20.14;89.31
33625;BME280;19962;47.820;1.930;2023-09-19T01:18:27;100451.09;;;20.17;88.96
33625;BME280;19962;47.820;1.930;2023-09-19T01:21:28;100464.75;;;20.13;89.26
33625;BME280;19962;47.820;1.930;2023-09-19T01:29:48;100478.75;;;20.03;89.35
33625;BME280;19962;47.820;1.930;2023-09-19T01:32:18;100476.03;;;19.98;89.45
33625;BME280;19962;47.820;1.930;2023-09-19T01:34:57;100480.84;;;19.88;89.89
33625;BME280;19962;47.820;1.930;2023-09-19T01:37:29;100483.47;;;19.79;90.12
33625;BME280;19962;47.820;1.930;2023-09-19T01:40:02;100482.09;;;19.77;90.27
33625;BME280;19962;47.820;1.930;2023-09-19T01:43:14;100478.41;;;19.81;90.03
33625;BME280;19962;47.820;1.930;2023-09-19T01:52:16;100484.94;;;19.67;90.07
33625;BME280;19962;47.820;1.930;2023-09-19T01:54:50;100490.88;;;19.60;89.88
33625;BME280;19962;47.820;1.930;2023-09-19T01:57:29;100479.47;;;19.57;90.28
33625;BME280;19962;47.820;1.930;2023-09-19T02:00:10;100481.63;;;19.65;90.37
33625;BME280;19962;47.820;1.930;2023-09-19T02:02:44;100475.81;;;19.61;90.44
33625;BME280;19962;47.820;1.930;2023-09-19T02:05:11;100489.44;;;19.63;90.08
33625;BME280;19962;47.820;1.930;2023-09-19T02:07:39;100484.47;;;19.60;90.12
33625;BME280;19962;47.820;1.930;2023-09-19T02:10:07;100478.31;;;19.63;90.03
33625;BME280;19962;47.820;1.930;2023-09-19T02:12:33;100486.97;;;19.61;89.89
33625;BME280;19962;47.820;1.930;2023-09-19T02:15:01;100496.56;;;19.74;89.58
33625;BME280;19962;47.820;1.930;2023-09-19T02:17:27;100487.38;;;19.78;89.17
33625;BME280;19962;47.820;1.930;2023-09-19T02:19:54;100480.44;;;19.71;89.25
33625;BME280;19962;47.820;1.930;2023-09-19T02:22:21;100487.81;;;19.57;89.88
33625;BME280;19962;47.820;1.930;2023-09-19T02:24:48;100493.22;;;19.43;90.72
33625;BME280;19962;47.820;1.930;2023-09-19T02:27:14;100493.19;;;19.48;90.59
33625;BME280;19962;47.820;1.930;2023-09-19T02:29:42;100496.75;;;19.54;90.36
33625;BME280;19962;47.820;1.930;2023-09-19T02:32:08;100497.00;;;19.57;89.87
33625;BME280;19962;47.820;1.930;2023-09-19T02:34:35;100497.81;;;19.58;89.84
33625;BME280;19962;47.820;1.930;2023-09-19T02:37:05;100499.75;;;19.62;89.78
33625;BME280;19962;47.820;1.930;2023-09-19T02:39:32;100494.75;;;19.59;89.64
33625;BME280;19962;47.820;1.930;2023-09-19T02:41:58;100503.06;;;19.64;89.13
33625;BME280;19962;47.820;1.930;2023-09-19T02:44:24;100506.16;;;19.63;89.09
33625;BME280;19962;47.820;1.930;2023-09-19T02:46:51;100517.53;;;19.66;88.73
33625;BME280;19962;47.820;1.930;2023-09-19T02:49:17;100508.63;;;19.64;88.65
33625;BME280;19962;47.820;1.930;2023-09-19T02:51:44;100513.63;;;19.67;88.35
33625;BME280;19962;47.820;1.930;2023-09-19T02:54:10;100520.06;;;19.63;88.42
33625;BME280;19962;47.820;1.930;2023-09-19T02:56:37;100504.47;;;19.62;88.15
33625;BME280;19962;47.820;1.930;2023-09-19T02:59:03;100509.88;;;19.48;88.49
33625;BME280;19962;47.820;1.930;2023-09-19T03:01:30;100510.25;;;19.37;88.97
33625;BME280;19962;47.820;1.930;2023-09-19T03:03:56;100501.63;;;19.33;89.22
33625;BME280;19962;47.820;1.930;2023-09-19T03:06:22;100506.03;;;19.39;89.08
33625;BME280;19962;47.820;1.930;2023-09-19T03:08:49;100510.19;;;19.42;88.74
33625;BME280;19962;47.820;1.930;2023-09-19T03:11:17;100514.91;;;19.41;88.43
33625;BME280;19962;47.820;1.930;2023-09-19T03:13:54;100500.81;;;19.33;88.47
33625;BME280;19962;47.820;1.930;2023-09-19T03:16:20;100507.78;;;19.30;88.64
33625;BME280;19962;47.820;1.930;2023-09-19T03:18:51;100513.88;;;19.32;88.34
33625;BME280;19962;47.820;1.930;2023-09-19T03:21:17;100506.66;;;19.31;88.34
33625;BME280;19962;47.820;1.930;2023-09-19T03:23:45;100512.25;;;19.26;88.31
33625;BME280;19962;47.820;1.930;2023-09-19T03:26:12;100507.81;;;19.25;88.21
33625;BME280;19962;47.820;1.930;2023-09-19T03:28:39;100511.69;;;19.24;88.00
33625;BME280;19962;47.820;1.930;2023-09-19T03:31:06;100506.19;;;19.09;88.49
33625;BME280;19962;47.820;1.930;2023-09-19T03:33:33;100507.59;;;19.07;88.73
33625;BME280;19962;47.820;1.930;2023-09-19T03:36:00;100493.22;;;18.95;88.85
33625;BME280;19962;47.820;1.930;2023-09-19T03:38:27;100499.63;;;18.95;88.99
33625;BME280;19962;47.820;1.930;2023-09-19T03:40:54;100494.34;;;18.94;89.23
33625;BME280;19962;47.820;1.930;2023-09-19T03:43:21;100490.16;;;18.96;88.91
33625;BME280;19962;47.820;1.930;2023-09-19T03:45:47;100492.09;;;19.01;88.64
33625;BME280;19962;47.820;1.930;2023-09-19T03:48:14;100495.19;;;18.94;88.38
33625;BME280;19962;47.820;1.930;2023-09-19T03:50:40;100489.06;;;18.92;88.57
33625;BME280;19962;47.820;1.930;2023-09-19T03:53:06;100493.53;;;18.88;88.58
33625;BME280;19962;47.820;1.930;2023-09-19T03:55:35;100492.44;;;18.84;88.52
33625;BME280;19962;47.820;1.930;2023-09-19T03:58:02;100495.78;;;18.86;88.26
33625;BME280;19962;47.820;1.930;2023-09-19T04:00:28;100489.06;;;18.92;87.97
33625;BME280;19962;47.820;1.930;2023-09-19T04:02:55;100489.66;;;18.89;87.53
33625;BME280;19962;47.820;1.930;2023-09-19T04:05:23;100486.88;;;18.89;87.75
33625;BME280;19962;47.820;1.930;2023-09-19T04:07:49;100492.13;;;18.91;87.09
33625;BME280;19962;47.820;1.930;2023-09-19T04:10:16;100491.31;;;18.90;86.97
33625;BME280;19962;47.820;1.930;2023-09-19T04:12:51;100490.81;;;18.78;86.68
33625;BME280;19962;47.820;1.930;2023-09-19T04:15:18;100486.94;;;18.74;87.02
33625;BME280;19962;47.820;1.930;2023-09-19T04:17:44;100485.28;;;18.73;87.27
33625;BME280;19962;47.820;1.930;2023-09-19T04:20:10;100480.25;;;18.75;87.00
33625;BME280;19962;47.820;1.930;2023-09-19T04:22:38;100487.53;;;18.71;86.68
33625;BME280;19962;47.820;1.930;2023-09-19T04:25:05;100486.41;;;18.67;86.93
33625;BME280;19962;47.820;1.930;2023-09-19T04:27:34;100493.34;;;18.70;87.02
33625;BME280;19962;47.820;1.930;2023-09-19T04:30:01;100489.16;;;18.72;86.70
33625;BME280;19962;47.820;1.930;2023-09-19T04:32:52;100497.25;;;18.64;86.69
33625;BME280;19962;47.820;1.930;2023-09-19T04:35:19;100490.00;;;18.68;86.72
33625;BME280;19962;47.820;1.930;2023-09-19T04:37:45;100486.09;;;18.69;86.71
33625;BME280;19962;47.820;1.930;2023-09-19T04:40:11;100484.19;;;18.69;86.36
33625;BME280;19962;47.820;1.930;2023-09-19T04:42:43;100489.78;;;18.59;86.46
33625;BME280;19962;47.820;1.930;2023-09-19T04:45:10;100490.34;;;18.56;86.71
33625;BME280;19962;47.820;1.930;2023-09-19T04:47:37;100494.50;;;18.59;86.53
33625;BME280;19962;47.820;1.930;2023-09-19T04:50:07;100489.22;;;18.57;86.35
33625;BME280;19962;47.820;1.930;2023-09-19T04:52:33;100490.91;;;18.53;86.62
33625;BME280;19962;47.820;1.930;2023-09-19T04:55:00;100487.28;;;18.58;86.54
33625;BME280;19962;47.820;1.930;2023-09-19T04:57:26;100490.31;;;18.61;86.23
33625;BME280;19962;47.820;1.930;2023-09-19T04:59:54;100486.75;;;18.56;86.37
33625;BME280;19962;47.820;1.930;2023-09-19T05:02:20;100488.13;;;18.58;86.26
33625;BME280;19962;47.820;1.930;2023-09-19T05:04:46;100486.97;;;18.64;86.03
33625;BME280;19962;47.820;1.930;2023-09-19T05:07:12;100489.50;;;18.61;86.32
33625;BME280;19962;47.820;1.930;2023-09-19T05:09:38;100489.75;;;18.64;86.05
33625;BME280;19962;47.820;1.930;2023-09-19T05:12:05;100486.72;;;18.61;85.92
33625;BME280;19962;47.820;1.930;2023-09-19T05:14:32;100491.44;;;18.60;86.15
33625;BME280;19962;47.820;1.930;2023-09-19T05:16:58;100488.09;;;18.63;86.06
33625;BME280;19962;47.820;1.930;2023-09-19T05:19:25;100488.13;;;18.58;85.90
33625;BME280;19962;47.820;1.930;2023-09-19T05:21:51;100485.38;;;18.48;86.39
33625;BME280;19962;47.820;1.930;2023-09-19T05:24:17;100492.59;;;18.54;86.18
33625;BME280;19962;47.820;1.930;2023-09-19T05:26:43;100492.00;;;18.57;85.98
33625;BME280;19962;47.820;1.930;2023-09-19T05:29:10;100493.69;;;18.58;85.88
33625;BME280;19962;47.820;1.930;2023-09-19T05:31:36;100495.66;;;18.53;85.90
33625;BME280;19962;47.820;1.930;2023-09-19T05:34:06;100499.25;;;18.48;86.20
33625;BME280;19962;47.820;1.930;2023-09-19T05:36:32;100500.91;;;18.54;85.94
33625;BME280;19962;47.820;1.930;2023-09-19T05:38:59;100495.91;;;18.56;85.63
33625;BME280;19962;47.820;1.930;2023-09-19T05:41:25;100499.22;;;18.53;85.92
33625;BME280;19962;47.820;1.930;2023-09-19T05:43:51;100497.03;;;18.50;86.07
33625;BME280;19962;47.820;1.930;2023-09-19T05:46:17;100500.41;;;18.42;86.27
33625;BME280;19962;47.820;1.930;2023-09-19T05:48:44;100501.50;;;18.46;86.19
33625;BME280;19962;47.820;1.930;2023-09-19T05:51:10;100501.47;;;18.56;85.88
33625;BME280;19962;47.820;1.930;2023-09-19T05:53:36;100508.38;;;18.64;85.61
33625;BME280;19962;47.820;1.930;2023-09-19T05:56:02;100519.78;;;18.67;85.35
33625;BME280;19962;47.820;1.930;2023-09-19T05:58:28;100505.88;;;18.67;85.53
33625;BME280;19962;47.820;1.930;2023-09-19T06:00:54;100513.91;;;18.69;85.44
33625;BME280;19962;47.820;1.930;2023-09-19T06:03:21;100511.13;;;18.69;85.46
33625;BME280;19962;47.820;1.930;2023-09-19T06:05:47;100523.34;;;18.73;85.23
33625;BME280;19962;47.820;1.930;2023-09-19T06:08:15;100523.94;;;18.70;85.13
33625;BME280;19962;47.820;1.930;2023-09-19T06:10:41;100522.25;;;18.69;85.26
33625;BME280;19962;47.820;1.930;2023-09-19T06:13:07;100521.44;;;18.68;85.19
33625;BME280;19962;47.820;1.930;2023-09-19T06:15:36;100523.63;;;18.76;85.22
33625;BME280;19962;47.820;1.930;2023-09-19T06:18:02;100530.28;;;18.80;85.10
33625;BME280;19962;47.820;1.930;2023-09-19T06:20:31;100522.50;;;18.77;85.14
33625;BME280;19962;47.820;1.930;2023-09-19T06:22:57;100532.47;;;18.83;85.04
33625;BME280;19962;47.820;1.930;2023-09-19T06:25:23;100536.31;;;18.92;84.79
33625;BME280;19962;47.820;1.930;2023-09-19T06:27:53;100534.63;;;18.96;84.59
33625;BME280;19962;47.820;1.930;2023-09-19T06:30:23;100542.44;;;18.94;84.67
33625;BME280;19962;47.820;1.930;2023-09-19T06:32:56;100544.09;;;18.95;84.60
33625;BME280;19962;47.820;1.930;2023-09-19T06:35:23;100559.41;;;18.93;85.09
33625;BME280;19962;47.820;1.930;2023-09-19T06:37:49;100545.75;;;18.96;84.74
33625;BME280;19962;47.820;1.930;2023-09-19T06:40:17;100541.56;;;18.99;84.92
33625;BME280;19962;47.820;1.930;2023-09-19T06:42:52;100546.56;;;19.02;84.47
33625;BME280;19962;47.820;1.930;2023-09-19T06:45:19;100550.16;;;19.02;84.59
33625;BME280;19962;47.820;1.930;2023-09-19T06:47:51;100549.03;;;19.08;84.39
33625;BME280;19962;47.820;1.930;2023-09-19T06:50:18;100554.28;;;19.15;84.37
33625;BME280;19962;47.820;1.930;2023-09-19T06:52:46;100555.63;;;19.22;84.04
33625;BME280;19962;47.820;1.930;2023-09-19T06:55:16;100548.97;;;19.18;83.96
33625;BME280;19962;47.820;1.930;2023-09-19T06:57:43;100550.63;;;19.24;83.77
33625;BME280;19962;47.820;1.930;2023-09-19T07:00:10;100550.06;;;19.22;83.71
33625;BME280;19962;47.820;1.930;2023-09-19T07:02:44;100560.66;;;19.20;84.02
33625;BME280;19962;47.820;1.930;2023-09-19T07:05:10;100553.16;;;19.16;84.51
33625;BME280;19962;47.820;1.930;2023-09-19T07:07:37;100546.19;;;19.18;84.67
33625;BME280;19962;47.820;1.930;2023-09-19T07:10:04;100559.28;;;19.23;84.51
33625;BME280;19962;47.820;1.930;2023-09-19T07:12:36;100561.81;;;19.09;84.92
33625;BME280;19962;47.820;1.930;2023-09-19T07:15:03;100564.03;;;19.12;84.97
33625;BME280;19962;47.820;1.930;2023-09-19T07:17:29;100561.19;;;19.22;84.92
33625;BME280;19962;47.820;1.930;2023-09-19T07:19:55;100563.97;;;19.27;84.60
33625;BME280;19962;47.820;1.930;2023-09-19T07:22:21;100558.13;;;19.29;84.45
33625;BME280;19962;47.820;1.930;2023-09-19T07:24:49;100563.13;;;19.27;84.47
33625;BME280;19962;47.820;1.930;2023-09-19T07:27:15;100564.84;;;19.23;84.88
33625;BME280;19962;47.820;1.930;2023-09-19T07:29:42;100565.13;;;19.16;85.14
33625;BME280;19962;47.820;1.930;2023-09-19T07:32:08;100573.47;;;19.16;84.94
33625;BME280;19962;47.820;1.930;2023-09-19T07:34:36;100583.19;;;19.24;85.02
33625;BME280;19962;47.820;1.930;2023-09-19T07:37:02;100572.81;;;19.39;84.76
33625;BME280;19962;47.820;1.930;2023-09-19T07:39:29;100578.56;;;19.53;84.32
33625;BME280;19962;47.820;1.930;2023-09-19T07:41:55;100581.06;;;19.54;84.13
33625;BME280;19962;47.820;1.930;2023-09-19T07:44:22;100581.59;;;19.61;84.27
33625;BME280;19962;47.820;1.930;2023-09-19T07:46:48;100584.28;;;19.71;83.90
33625;BME280;19962;47.820;1.930;2023-09-19T07:49:16;100584.88;;;19.63;84.11
33625;BME280;19962;47.820;1.930;2023-09-19T07:51:43;100577.34;;;19.69;84.12
33625;BME280;19962;47.820;1.930;2023-09-19T07:54:12;100579.53;;;19.77;83.95
33625;BME280;19962;47.820;1.930;2023-09-19T07:56:39;100588.69;;;19.77;83.83
33625;BME280;19962;47.820;1.930;2023-09-19T07:59:05;100580.00;;;19.84;83.42
33625;BME280;19962;47.820;1.930;2023-09-19T08:01:31;100585.28;;;19.85;83.34
33625;BME280;19962;47.820;1.930;2023-09-19T08:03:58;100580.28;;;19.87;83.17
33625;BME280;19962;47.820;1.930;2023-09-19T08:06:24;100575.91;;;19.76;83.64
33625;BME280;19962;47.820;1.930;2023-09-19T08:08:55;100583.97;;;19.78;83.32
33625;BME280;19962;47.820;1.930;2023-09-19T08:11:23;100589.25;;;19.79;83.53
33625;BME280;19962;47.820;1.930;2023-09-19T08:13:50;100593.16;;;19.73;83.62
33625;BME280;19962;47.820;1.930;2023-09-19T08:16:16;100585.34;;;19.80;83.67
33625;BME280;19962;47.820;1.930;2023-09-19T08:18:47;100588.91;;;19.86;83.55
33625;BME280;19962;47.820;1.930;2023-09-19T08:21:14;100588.63;;;19.87;83.41
33625;BME280;19962;47.820;1.930;2023-09-19T08:23:41;100580.81;;;19.89;83.69
33625;BME280;19962;47.820;1.930;2023-09-19T08:26:08;100592.13;;;19.98;83.31
33625;BME280;19962;47.820;1.930;2023-09-19T08:28:35;100595.81;;;19.93;83.28
33625;BME280;19962;47.820;1.930;2023-09-19T08:31:05;100592.41;;;20.01;83.31
33625;BME280;19962;47.820;1.930;2023-09-19T08:33:35;100603.50;;;20.11;83.21
33625;BME280;19962;47.820;1.930;2023-09-19T08:36:05;100598.06;;;20.25;82.81
33625;BME280;19962;47.820;1.930;2023-09-19T08:38:33;100608.16;;;20.21;82.08
33625;BME280;19962;47.820;1.930;2023-09-19T08:41:00;100613.44;;;20.17;82.10
33625;BME280;19962;47.820;1.930;2023-09-19T08:43:27;100604.53;;;20.20;82.15
33625;BME280;19962;47.820;1.930;2023-09-19T08:46:11;100597.19;;;20.29;82.32
33625;BME280;19962;47.820;1.930;2023-09-19T08:49:19;100583.53;;;20.56;81.92
33625;BME280;19962;47.820;1.930;2023-09-19T08:51:59;100588.41;;;20.69;80.92
33625;BME280;19962;47.820;1.930;2023-09-19T08:54:31;100583.34;;;20.76;80.86
33625;BME280;19962;47.820;1.930;2023-09-19T08:57:03;100575.38;;;20.88;80.47
33625;BME280;19962;47.820;1.930;2023-09-19T08:59:33;100583.13;;;20.96;79.96
33625;BME280;19962;47.820;1.930;2023-09-19T09:02:01;100587.63;;;20.92;79.85
33625;BME280;19962;47.820;1.930;2023-09-19T09:04:30;100580.91;;;20.93;79.72
33625;BME280;19962;47.820;1.930;2023-09-19T09:06:56;100586.44;;;20.98;79.30
33625;BME280;19962;47.820;1.930;2023-09-19T09:09:24;100577.47;;;21.01;78.94
33625;BME280;19962;47.820;1.930;2023-09-19T09:11:50;100577.03;;;20.94;78.88
33625;BME280;19962;47.820;1.930;2023-09-19T09:14:19;100576.78;;;20.86;78.67
33625;BME280;19962;47.820;1.930;2023-09-19T09:16:47;100571.56;;;20.79;78.98
33625;BME280;19962;47.820;1.930;2023-09-19T09:19:14;100570.44;;;20.80;78.46
33625;BME280;19962;47.820;1.930;2023-09-19T09:21:46;100571.63;;;20.74;78.63
33625;BME280;19962;47.820;1.930;2023-09-19T09:24:29;100564.81;;;20.62;78.27
33625;BME280;19962;47.820;1.930;2023-09-19T09:26:57;100564.94;;;20.52;79.07
33625;BME280;19962;47.820;1.930;2023-09-19T09:29:43;100572.28;;;20.43;79.53
33625;BME280;19962;47.820;1.930;2023-09-19T09:32:30;100567.13;;;20.26;79.67
33625;BME280;19962;47.820;1.930;2023-09-19T09:35:07;100572.19;;;20.24;80.66
33625;BME280;19962;47.820;1.930;2023-09-19T09:37:35;100567.78;;;20.18;81.09
33625;BME280;19962;47.820;1.930;2023-09-19T09:40:05;100566.72;;;20.14;81.19
33625;BME280;19962;47.820;1.930;2023-09-19T09:42:40;100568.38;;;20.15;81.33
33625;BME280;19962;47.820;1.930;2023-09-19T09:47:44;100559.72;;;20.17;81.13
33625;BME280;19962;47.820;1.930;2023-09-19T09:50:38;100551.53;;;20.25;80.83
33625;BME280;19962;47.820;1.930;2023-09-19T09:56:05;100555.50;;;20.48;82.17
33625;BME280;19962;47.820;1.930;2023-09-19T09:58:36;100556.56;;;20.52;81.32
33625;BME280;19962;47.820;1.930;2023-09-19T10:01:04;100554.44;;;20.44;81.01
33625;BME280;19962;47.820;1.930;2023-09-19T10:03:42;100555.22;;;20.49;80.96
33625;BME280;19962;47.820;1.930;2023-09-19T10:06:16;100556.75;;;20.60;81.22
33625;BME280;19962;47.820;1.930;2023-09-19T10:09:05;100547.66;;;20.73;80.90
33625;BME280;19962;47.820;1.930;2023-09-19T10:11:47;100543.94;;;20.83;79.86
33625;BME280;19962;47.820;1.930;2023-09-19T10:14:27;100539.09;;;20.88;79.85
33625;BME280;19962;47.820;1.930;2023-09-19T10:16:58;100533.97;;;21.00;79.06
33625;BME280;19962;47.820;1.930;2023-09-19T10:19:39;100528.03;;;21.07;76.15
33625;BME280;19962;47.820;1.930;2023-09-19T10:22:12;100532.47;;;21.08;76.32
33625;BME280;19962;47.820;1.930;2023-09-19T10:24:48;100533.69;;;21.20;75.97
33625;BME280;19962;47.820;1.930;2023-09-19T10:27:18;100527.97;;;21.30;74.69
33625;BME280;19962;47.820;1.930;2023-09-19T10:29:49;100533.78;;;21.34;73.99
33625;BME280;19962;47.820;1.930;2023-09-19T10:32:20;100542.75;;;21.49;73.81
33625;BME280;19962;47.820;1.930;2023-09-19T10:34:50;100541.78;;;21.59;73.16
33625;BME280;19962;47.820;1.930;2023-09-19T10:37:22;100538.66;;;21.60;72.99
33625;BME280;19962;47.820;1.930;2023-09-19T10:39:53;100537.78;;;21.65;72.66
33625;BME280;19962;47.820;1.930;2023-09-19T10:42:23;100536.28;;;21.72;72.34
33625;BME280;19962;47.820;1.930;2023-09-19T10:44:55;100529.41;;;21.83;71.81
33625;BME280;19962;47.820;1.930;2023-09-19T10:47:26;100522.94;;;22.01;71.25
33625;BME280;19962;47.820;1.930;2023-09-19T10:49:52;100525.66;;;22.06;70.86
33625;BME280;19962;47.820;1.930;2023-09-19T10:52:23;100529.13;;;21.98;70.42
33625;BME280;19962;47.820;1.930;2023-09-19T10:54:53;100528.19;;;21.89;70.19
33625;BME280;19962;47.820;1.930;2023-09-19T10:57:25;100527.75;;;21.64;71.50
33625;BME280;19962;47.820;1.930;2023-09-19T11:00:09;100525.03;;;21.59;71.89
33625;BME280;19962;47.820;1.930;2023-09-19T11:05:41;100520.72;;;21.66;71.65
33625;BME280;19962;47.820;1.930;2023-09-19T11:08:08;100509.31;;;21.63;71.78
33625;BME280;19962;47.820;1.930;2023-09-19T11:10:49;100512.94;;;21.63;71.97
33625;BME280;19962;47.820;1.930;2023-09-19T11:13:26;100508.66;;;21.52;71.58
33625;BME280;19962;47.820;1.930;2023-09-19T11:18:50;100504.28;;;21.46;71.84
33625;BME280;19962;47.820;1.930;2023-09-19T11:26:48;100499.31;;;21.43;70.99
33625;BME280;19962;47.820;1.930;2023-09-19T11:29:27;100491.84;;;21.39;70.78
33625;BME280;19962;47.820;1.930;2023-09-19T11:31:55;100484.75;;;21.28;70.99
33625;BME280;19962;47.820;1.930;2023-09-19T11:39:37;100497.72;;;21.37;71.77
33625;BME280;19962;47.820;1.930;2023-09-19T11:48:18;100480.19;;;22.01;69.43
33625;BME280;19962;47.820;1.930;2023-09-19T11:50:45;100472.47;;;22.11;69.54
33625;BME280;19962;47.820;1.930;2023-09-19T11:53:13;100465.88;;;22.21;68.84
33625;BME280;19962;47.820;1.930;2023-09-19T11:55:40;100460.59;;;22.19;68.82
33625;BME280;19962;47.820;1.930;2023-09-19T11:58:09;100462.75;;;22.36;68.37
33625;BME280;19962;47.820;1.930;2023-09-19T12:00:36;100467.13;;;22.28;68.00
33625;BME280;19962;47.820;1.930;2023-09-19T12:03:09;100468.03;;;22.24;67.84
33625;BME280;19962;47.820;1.930;2023-09-19T12:05:36;100467.38;;;22.13;67.92
33625;BME280;19962;47.820;1.930;2023-09-19T12:08:04;100466.47;;;22.18;67.52
33625;BME280;19962;47.820;1.930;2023-09-19T12:10:33;100461.00;;;22.26;66.86
33625;BME280;19962;47.820;1.930;2023-09-19T12:13:00;100463.06;;;22.21;67.30
33625;BME280;19962;47.820;1.930;2023-09-19T12:15:27;100465.63;;;22.17;67.07
33625;BME280;19962;47.820;1.930;2023-09-19T12:17:54;100469.91;;;22.28;66.67
33625;BME280;19962;47.820;1.930;2023-09-19T12:20:20;100467.53;;;22.22;67.43
33625;BME280;19962;47.820;1.930;2023-09-19T12:22:47;100465.22;;;22.24;67.44
33625;BME280;19962;47.820;1.930;2023-09-19T12:27:47;100462.97;;;22.39;66.32
33625;BME280;19962;47.820;1.930;2023-09-19T12:30:15;100453.47;;;22.54;65.37
33625;BME280;19962;47.820;1.930;2023-09-19T12:32:43;100452.94;;;22.65;64.98
33625;BME280;19962;47.820;1.930;2023-09-19T12:35:10;100457.63;;;22.70;64.43
33625;BME280;19962;47.820;1.930;2023-09-19T12:37:52;100457.69;;;22.78;63.92
33625;BME280;19962;47.820;1.930;2023-09-19T12:40:21;100457.78;;;22.87;64.25
33625;BME280;19962;47.820;1.930;2023-09-19T12:42:49;100454.78;;;22.83;64.03
33625;BME280;19962;47.820;1.930;2023-09-19T12:45:16;100453.94;;;22.83;63.63
33625;BME280;19962;47.820;1.930;2023-09-19T12:51:08;100448.91;;;22.71;61.83
33625;BME280;19962;47.820;1.930;2023-09-19T12:56:13;100438.44;;;22.90;62.92
33625;BME280;19962;47.820;1.930;2023-09-19T12:58:49;100419.69;;;22.77;62.41
33625;BME280;19962;47.820;1.930;2023-09-19T13:01:16;100418.06;;;22.63;63.06
33625;BME280;19962;47.820;1.930;2023-09-19T13:03:43;100396.09;;;22.56;63.26
33625;BME280;19962;47.820;1.930;2023-09-19T13:06:09;100417.03;;;22.45;63.31
33625;BME280;19962;47.820;1.930;2023-09-19T13:08:37;100410.59;;;22.45;63.18
33625;BME280;19962;47.820;1.930;2023-09-19T13:11:11;100410.38;;;22.55;63.36
33625;BME280;19962;47.820;1.930;2023-09-19T13:16:10;100412.78;;;22.61;63.55
33625;BME280;19962;47.820;1.930;2023-09-19T13:21:14;100407.25;;;22.83;63.80
33625;BME280;19962;47.820;1.930;2023-09-19T13:23:54;100406.09;;;22.84;62.91
33625;BME280;19962;47.820;1.930;2023-09-19T13:26:28;100403.59;;;22.83;62.62
33625;BME280;19962;47.820;1.930;2023-09-19T13:28:54;100408.88;;;22.84;62.49
33625;BME280;19962;47.820;1.930;2023-09-19T13:31:21;100410.56;;;22.85;63.20
33625;BME280;19962;47.820;1.930;2023-09-19T13:33:48;100413.63;;;22.97;62.78
33625;BME280;19962;47.820;1.930;2023-09-19T13:36:15;100403.59;;;22.96;62.99
33625;BME280;19962;47.820;1.930;2023-09-19T13:38:44;100404.06;;;22.98;62.24
33625;BME280;19962;47.820;1.930;2023-09-19T13:41:11;100406.63;;;22.86;62.07
33625;BME280;19962;47.820;1.930;2023-09-19T13:43:37;100400.00;;;22.82;61.68
33625;BME280;19962;47.820;1.930;2023-09-19T13:46:05;100392.53;;;22.78;61.37
33625;BME280;19962;47.820;1.930;2023-09-19T13:48:33;100403.59;;;22.96;60.94
33625;BME280;19962;47.820;1.930;2023-09-19T13:51:02;100397.06;;;22.87;60.23
33625;BME280;19962;47.820;1.930;2023-09-19T13:53:29;100392.03;;;22.76;60.64
33625;BME280;19962;47.820;1.930;2023-09-19T13:55:56;100393.88;;;22.80;60.23
33625;BME280;19962;47.820;1.930;2023-09-19T13:58:22;100384.00;;;22.96;59.80
33625;BME280;19962;47.820;1.930;2023-09-19T14:00:53;100388.97;;;22.99;59.90